La Place, Louisiana
Current Conditions -  °F | °C
As of 10:55 PM on Friday 19 Dec 2014 (Local Time) from K1L0 Reporting Station
Moderate Rain Moderate Rain  
Wind Chill: 52°   Ceiling: 500
Heat Index: 52°   Visibility: 7mi
Dew Point: 50°   Wind: 8mph
Humidity: 92%   Direction: 50°NE
Pressure: 30.08"   Gusts: NA
Location:  30.07°N, 90.47°W
Report Text: K1L0 200455Z AUTO 05007KT 7SM RA OVC005 11/10 A3008 RMK AO2 P0003 T01120100
Loading
Personal Weather Stations






























Interactive Weather Map New forecast layout! Learn more

10-Day Weather Forecast

Advertisements
Track Severe Weather on mobile